Ridgewood, SC

7:17 PM EDT on August 27, 2014 (GMT -0400)
Forest Hills | Change Station
CLOSE
Current Station
Personal Weather Station
Location: Columbia, SC
Elevation: 299 ft
Nearby Weather Stations

Elev 299 ft 34.01 °N, 81.00 °W | Updated 8 seconds ago

Clear
Clear
86.6 °F
Feels Like 85 °F
N
0.0
Wind Variable Wind from North
Gusts 1.0 mph

Today
High -- | Low -- °F
--% Chance of Precip.
Yesterday
High -- | Low -- °F
Precip. -- in
6:54 AM 7:56 PM
Waxing Crescent, 5% visible
Pressure 29.97 in
Visibility 10.0 miles
Clouds Clear
Heat Index 85 °F
Dew Point 56 °F
Humidity 36%
Rainfall 0.00 in
Snow Depth Not available.
UV 1 out of 12
Pollen 8.40 out of 12
Ozone Good
Flu Activity Not available.
METAR KCUB 272253Z AUTO 02004KT 10SM CLR 33/11 A2998 RMK AO2 SLP149 T03280111

More Conditions Fewer Conditions

Pressure 29.97 in
Visibility 10.0 miles
Clouds Clear
Heat Index 85 °F
Dew Point 56 °F
Humidity 36%
Rainfall 0.00 in
Snow Depth Not available.
UV 1 out of 12
Pollen 8.40 out of 12
Ozone Good
Flu Activity Not available.
METAR KCUB 272253Z AUTO 02004KT 10SM CLR 33/11 A2998 RMK AO2 SLP149 T03280111

More Conditions Fewer Conditions

10-Day Weather Forecast

Almanac

Astronomy

Aug. 27, 2014 Rise Set
Actual Time 6:54 AM EDT 7:56 PM EDT
Civil Twilight 6:28 AM EDT 8:22 PM EDT
Nautical Twilight 5:57 AM EDT 8:52 PM EDT
Astronomical Twilight 5:26 AM EDT 9:24 PM EDT
Moon 8:41 AM EDT 8:56 PM EDT
Length of Visible Light 13h 53m
Length of Day
13h 02m
Tomorrow will be 2m 1s shorter.
Waxing Crescent, 5% of the Moon is Illuminated
Today
Waxing Crescent
Sep 2
First Quarter
Sep 8
Full
Sep 15
Last Quarter
Sep 24
New

Today's Extremes

State Highs State Lows

Community

WunderPhotos

Upload Photos

1,747,815 photos uploaded!

Nearby

Air Quality

  Air Quality AQ Index Pollutant
Yesterday Good
OZONE
Current Good
OZONE
Wednesday Good
OZONE
Thursday Good
OZONE

Snow Depth

Station Depth Elevation
No new snow has been reported.

Earthquake Activity

City Distance Mag. Time & Date
No recent earthquake activity has been reported nearby.
Minimum magnitude displayed is 2.5.

Coastal Water Temperatures

Place Temperature
No Stations Reporting

Nearby Weather Stations